createdAt,value
2023-02-12T00:00:15.429Z,94.92
2023-02-12T00:01:15.419Z,94.81
2023-02-12T00:02:15.659Z,94.81
2023-02-12T00:03:15.434Z,95.27
2023-02-12T00:04:15.378Z,95.89
2023-02-12T00:05:15.368Z,96.30
2023-02-12T00:06:16.151Z,96.92
2023-02-12T00:07:15.350Z,97.17
2023-02-12T00:08:15.331Z,97.38
2023-02-12T00:09:15.312Z,97.59
2023-02-12T00:10:15.301Z,97.69
2023-02-12T00:11:15.294Z,97.79
2023-02-12T00:12:15.286Z,97.84
2023-02-12T00:13:15.282Z,97.89
2023-02-12T00:14:15.254Z,97.89
2023-02-12T00:15:15.232Z,97.89
2023-02-12T00:16:15.343Z,97.49
2023-02-12T00:17:15.225Z,97.28
2023-02-12T00:18:15.193Z,97.28
2023-02-12T00:19:15.180Z,97.49
2023-02-12T00:20:15.171Z,97.59
2023-02-12T00:21:15.152Z,97.69
2023-02-12T00:22:15.160Z,97.69
2023-02-12T00:23:15.133Z,97.59
2023-02-12T00:24:15.121Z,97.38
2023-02-12T00:25:15.114Z,97.13
2023-02-12T00:26:15.101Z,97.02
2023-02-12T00:27:15.108Z,96.92
2023-02-12T00:28:15.111Z,96.82
2023-02-12T00:29:15.083Z,96.72
2023-02-12T00:30:15.051Z,96.61
2023-02-12T00:31:15.211Z,96.47
2023-02-12T00:32:15.014Z,96.36
2023-02-12T00:33:15.030Z,96.36
2023-02-12T00:34:14.990Z,96.20
2023-02-12T00:35:14.972Z,96.51
2023-02-12T00:36:14.958Z,96.82
2023-02-12T00:37:14.947Z,96.92
2023-02-12T00:38:14.947Z,96.92
2023-02-12T00:39:14.925Z,96.92
2023-02-12T00:40:14.908Z,96.92
2023-02-12T00:41:14.897Z,96.82
2023-02-12T00:42:14.881Z,96.56
2023-02-12T00:43:14.895Z,96.36
2023-02-12T00:44:14.876Z,96.26
2023-02-12T00:45:14.871Z,96.15
2023-02-12T00:46:14.892Z,96.05
2023-02-12T00:47:14.821Z,95.99
2023-02-12T00:48:14.823Z,96.09
2023-02-12T00:49:14.790Z,96.15
2023-02-12T00:50:14.777Z,95.95
2023-02-12T00:51:14.774Z,95.64
2023-02-12T00:52:14.762Z,95.53
2023-02-12T00:53:14.763Z,95.32
2023-02-12T00:54:14.729Z,95.22
2023-02-12T00:55:14.715Z,95.12
2023-02-12T00:56:14.717Z,95.12
2023-02-12T00:57:14.692Z,95.02
2023-02-12T00:58:16.687Z,94.96
2023-02-12T00:59:14.667Z,94.81
2023-02-12T01:00:14.657Z,94.96
2023-02-12T01:01:14.693Z,95.17
2023-02-12T01:02:14.628Z,95.27
2023-02-12T01:03:14.627Z,95.48
2023-02-12T01:04:14.625Z,95.99
2023-02-12T01:05:14.646Z,96.34
2023-02-12T01:06:14.569Z,96.51
2023-02-12T01:07:14.568Z,96.76
2023-02-12T01:08:14.577Z,96.86
2023-02-12T01:09:14.532Z,96.86
2023-02-12T01:10:14.520Z,96.76
2023-02-12T01:11:14.514Z,96.76
2023-02-12T01:12:14.502Z,96.66
2023-02-12T01:13:14.498Z,96.76
2023-02-12T01:14:14.486Z,96.97
2023-02-12T01:15:14.459Z,97.17
2023-02-12T01:16:14.554Z,97.38
2023-02-12T01:17:14.451Z,97.79
2023-02-12T01:18:14.434Z,97.89
2023-02-12T01:19:14.436Z,98.15
2023-02-12T01:20:14.390Z,98.56
2023-02-12T01:21:14.380Z,98.66
2023-02-12T01:22:14.365Z,98.66
2023-02-12T01:23:14.369Z,98.77
2023-02-12T01:24:14.337Z,98.77
2023-02-12T01:25:14.326Z,98.87
2023-02-12T01:26:14.315Z,98.56
2023-02-12T01:27:14.299Z,98.35
2023-02-12T01:28:14.340Z,98.25
2023-02-12T01:29:14.280Z,98.05
2023-02-12T01:30:14.269Z,98.05
2023-02-12T01:31:14.335Z,98.00
2023-02-12T01:32:14.380Z,97.79
2023-02-12T01:33:14.261Z,97.69
2023-02-12T01:34:14.208Z,97.59
2023-02-12T01:35:14.209Z,97.69
2023-02-12T01:36:14.193Z,98.15
2023-02-12T01:37:14.178Z,98.35
2023-02-12T01:38:14.168Z,98.46
2023-02-12T01:39:14.154Z,98.56
2023-02-12T01:40:14.131Z,98.41
2023-02-12T01:41:14.121Z,98.31
2023-02-12T01:42:14.104Z,98.21
2023-02-12T01:43:14.104Z,98.10
2023-02-12T01:44:14.088Z,97.79
2023-02-12T01:45:14.062Z,97.79
2023-02-12T01:46:14.166Z,98.10
2023-02-12T01:47:14.036Z,98.21
2023-02-12T01:48:14.039Z,98.21
2023-02-12T01:49:14.038Z,98.10
2023-02-12T01:50:14.024Z,98.10
2023-02-12T01:51:13.997Z,98.10
2023-02-12T01:52:13.981Z,98.00
2023-02-12T01:53:13.975Z,97.79
2023-02-12T01:54:13.948Z,97.44
2023-02-12T01:55:13.944Z,97.13
2023-02-12T01:56:13.922Z,97.02
2023-02-12T01:57:13.910Z,97.02
2023-02-12T01:58:13.908Z,96.92
2023-02-12T01:59:13.901Z,96.82
2023-02-12T02:00:13.872Z,96.72
2023-02-12T02:01:13.876Z,96.51
2023-02-12T02:02:13.848Z,96.51
2023-02-12T02:03:13.901Z,96.41
2023-02-12T02:04:13.830Z,96.26
2023-02-12T02:05:13.824Z,96.20
2023-02-12T02:06:13.798Z,96.15
2023-02-12T02:07:13.780Z,96.09
2023-02-12T02:08:13.783Z,95.99
2023-02-12T02:09:13.752Z,95.99
2023-02-12T02:10:13.748Z,95.89
2023-02-12T02:11:13.728Z,95.89
2023-02-12T02:12:13.735Z,95.99
2023-02-12T02:13:13.717Z,96.09
2023-02-12T02:14:13.685Z,96.09
2023-02-12T02:15:13.679Z,96.20
2023-02-12T02:16:13.708Z,96.20
2023-02-12T02:17:13.649Z,96.20
2023-02-12T02:18:13.660Z,96.20
2023-02-12T02:19:13.616Z,96.09
2023-02-12T02:20:13.601Z,96.20
2023-02-12T02:21:13.608Z,96.20
2023-02-12T02:22:13.581Z,96.20
2023-02-12T02:23:13.562Z,96.20
2023-02-12T02:24:13.590Z,96.20
2023-02-12T02:25:13.536Z,96.20
2023-02-12T02:26:13.527Z,96.24
2023-02-12T02:27:13.515Z,96.24
2023-02-12T02:28:13.570Z,96.24
2023-02-12T02:29:13.504Z,96.34
2023-02-12T02:30:13.469Z,96.55
2023-02-12T02:31:13.621Z,96.76
2023-02-12T02:32:13.444Z,96.76
2023-02-12T02:33:13.436Z,96.76
2023-02-12T02:34:13.431Z,96.76
2023-02-12T02:35:13.415Z,96.76
2023-02-12T02:36:13.392Z,96.97
2023-02-12T02:37:13.412Z,97.07
2023-02-12T02:38:13.370Z,97.17
2023-02-12T02:39:13.365Z,97.74
2023-02-12T02:40:13.337Z,98.05
2023-02-12T02:41:13.328Z,98.35
2023-02-12T02:42:13.311Z,98.66
2023-02-12T02:43:13.303Z,98.77
2023-02-12T02:44:13.303Z,98.56
2023-02-12T02:45:13.281Z,98.35
2023-02-12T02:46:13.329Z,98.21
2023-02-12T02:47:13.250Z,98.10
2023-02-12T02:48:13.238Z,98.00
2023-02-12T02:49:13.242Z,97.89
2023-02-12T02:50:13.205Z,97.79
2023-02-12T02:51:13.196Z,97.59
2023-02-12T02:52:13.182Z,97.49
2023-02-12T02:53:13.240Z,97.59
2023-02-12T02:54:13.176Z,97.59
2023-02-12T02:55:13.147Z,97.59
2023-02-12T02:56:13.133Z,97.84
2023-02-12T02:57:13.126Z,97.89
2023-02-12T02:58:13.106Z,97.89
2023-02-12T02:59:13.114Z,97.79
2023-02-12T03:00:13.080Z,97.89
2023-02-12T03:01:13.107Z,98.15
2023-02-12T03:02:13.053Z,98.46
2023-02-12T03:03:13.051Z,98.56
2023-02-12T03:04:13.041Z,98.46
2023-02-12T03:05:13.031Z,98.46
2023-02-12T03:06:13.009Z,98.46
2023-02-12T03:07:12.987Z,98.77
2023-02-12T03:08:12.970Z,99.02
2023-02-12T03:09:13.008Z,99.23
2023-02-12T03:10:12.958Z,99.33
2023-02-12T03:11:12.937Z,99.43
2023-02-12T03:12:12.919Z,99.54
2023-02-12T03:13:12.911Z,99.49
2023-02-12T03:14:12.896Z,99.18
2023-02-12T03:15:12.901Z,99.08
2023-02-12T03:16:12.889Z,99.33
2023-02-12T03:17:12.873Z,99.54
2023-02-12T03:18:12.842Z,99.64
2023-02-12T03:19:12.889Z,99.60
2023-02-12T03:20:12.838Z,99.49
2023-02-12T03:21:12.807Z,99.29
2023-02-12T03:22:12.797Z,99.08
2023-02-12T03:23:12.787Z,98.93
2023-02-12T03:24:12.770Z,98.72
2023-02-12T03:25:12.798Z,98.62
2023-02-12T03:26:12.754Z,98.41
2023-02-12T03:27:12.736Z,98.31
2023-02-12T03:28:12.758Z,98.21
2023-02-12T03:29:12.706Z,98.10
2023-02-12T03:30:12.710Z,98.00
2023-02-12T03:31:12.763Z,97.85
2023-02-12T03:32:12.670Z,97.75
2023-02-12T03:33:12.652Z,97.59
2023-02-12T03:34:12.639Z,97.69
2023-02-12T03:35:12.652Z,97.89
2023-02-12T03:36:12.613Z,97.79
2023-02-12T03:37:12.602Z,97.59
2023-02-12T03:38:12.592Z,97.54
2023-02-12T03:39:12.574Z,97.33
2023-02-12T03:40:12.578Z,97.33
2023-02-12T03:41:12.584Z,97.38
2023-02-12T03:42:12.537Z,97.64
2023-02-12T03:43:12.523Z,97.69
2023-02-12T03:44:12.514Z,97.79
2023-02-12T03:45:12.511Z,97.89
2023-02-12T03:46:12.528Z,98.00
2023-02-12T03:47:12.471Z,98.00
2023-02-12T03:48:12.473Z,97.79
2023-02-12T03:49:12.448Z,97.69
2023-02-12T03:50:12.464Z,97.44
2023-02-12T03:51:12.425Z,97.33
2023-02-12T03:52:12.410Z,97.23
2023-02-12T03:53:12.403Z,97.13
2023-02-12T03:54:12.386Z,97.02
2023-02-12T03:55:12.386Z,96.92
2023-02-12T03:56:12.354Z,96.82
2023-02-12T03:57:12.369Z,96.72
2023-02-12T03:58:12.329Z,96.72
2023-02-12T03:59:12.413Z,96.61
2023-02-12T04:00:12.316Z,96.51
2023-02-12T04:01:12.425Z,96.61
2023-02-12T04:02:12.337Z,96.51
2023-02-12T04:03:12.266Z,96.51
2023-02-12T04:04:12.261Z,96.51
2023-02-12T04:05:12.251Z,96.51
2023-02-12T04:06:12.221Z,96.51
2023-02-12T04:07:12.209Z,96.51
2023-02-12T04:08:12.198Z,96.61
2023-02-12T04:09:12.180Z,96.72
2023-02-12T04:10:12.181Z,96.97
2023-02-12T04:11:12.158Z,97.07
2023-02-12T04:12:12.143Z,97.28
2023-02-12T04:13:12.159Z,97.38
2023-02-12T04:14:12.114Z,97.49
2023-02-12T04:15:12.125Z,97.69
2023-02-12T04:16:12.127Z,98.15
2023-02-12T04:17:12.077Z,98.10
2023-02-12T04:18:12.063Z,98.10
2023-02-12T04:19:12.056Z,98.35
2023-02-12T04:20:12.078Z,98.46
2023-02-12T04:21:12.027Z,98.41
2023-02-12T04:22:12.009Z,98.31
2023-02-12T04:23:11.997Z,98.15
2023-02-12T04:24:11.986Z,98.46
2023-02-12T04:25:11.975Z,98.77
2023-02-12T04:26:11.982Z,98.97
2023-02-12T04:27:11.957Z,98.97
2023-02-12T04:28:12.010Z,98.77
2023-02-12T04:29:11.947Z,98.62
2023-02-12T04:30:11.911Z,98.52
2023-02-12T04:31:12.105Z,98.41
2023-02-12T04:32:11.881Z,98.31
2023-02-12T04:33:11.880Z,98.21
2023-02-12T04:34:11.857Z,98.21
2023-02-12T04:35:11.850Z,98.10
2023-02-12T04:36:11.848Z,98.00
2023-02-12T04:37:11.824Z,97.89
2023-02-12T04:38:11.817Z,97.89
2023-02-12T04:39:11.801Z,97.89
2023-02-12T04:40:11.788Z,98.00
2023-02-12T04:41:11.791Z,98.00
2023-02-12T04:42:11.760Z,97.89
2023-02-12T04:43:11.742Z,97.85
2023-02-12T04:44:11.733Z,97.75
2023-02-12T04:45:12.511Z,97.64
2023-02-12T04:46:11.815Z,97.54
2023-02-12T04:47:11.690Z,97.44
2023-02-12T04:48:11.679Z,97.33
2023-02-12T04:49:11.670Z,97.23
2023-02-12T04:50:11.651Z,97.02
2023-02-12T04:51:11.655Z,96.92
2023-02-12T04:52:11.632Z,96.92
2023-02-12T04:53:11.620Z,97.02
2023-02-12T04:54:11.599Z,96.92
2023-02-12T04:55:11.591Z,96.82
2023-02-12T04:56:11.591Z,97.17
2023-02-12T04:57:11.564Z,97.49
2023-02-12T04:58:11.549Z,97.69
2023-02-12T04:59:11.545Z,97.59
2023-02-12T05:00:11.522Z,97.79
2023-02-12T05:01:11.571Z,98.21
2023-02-12T05:02:11.511Z,98.66
2023-02-12T05:03:11.490Z,99.08
2023-02-12T05:04:11.473Z,99.49
2023-02-12T05:05:11.500Z,99.95
2023-02-12T05:06:11.466Z,99.99
2023-02-12T05:07:11.432Z,99.99
2023-02-12T05:08:11.423Z,99.99
2023-02-12T05:09:11.409Z,99.99
2023-02-12T05:10:11.396Z,99.99
2023-02-12T05:11:11.399Z,99.91
2023-02-12T05:12:11.365Z,99.91
2023-02-12T05:13:11.356Z,99.70
2023-02-12T05:14:11.347Z,99.49
2023-02-12T05:15:11.341Z,99.39
2023-02-12T05:16:11.356Z,99.24
2023-02-12T05:17:11.327Z,99.04
2023-02-12T05:18:11.291Z,99.04
2023-02-12T05:19:11.291Z,98.83
2023-02-12T05:20:11.265Z,98.72
2023-02-12T05:21:11.267Z,98.62
2023-02-12T05:22:11.238Z,98.52
2023-02-12T05:23:11.222Z,98.41
2023-02-12T05:24:11.216Z,98.31
2023-02-12T05:25:11.202Z,98.16
2023-02-12T05:26:11.201Z,98.06
2023-02-12T05:27:11.182Z,98.06
2023-02-12T05:28:11.205Z,98.06
2023-02-12T05:29:11.145Z,97.96
2023-02-12T05:30:11.136Z,97.85
2023-02-12T05:31:11.310Z,97.75
2023-02-12T05:32:11.219Z,97.75
2023-02-12T05:33:11.115Z,97.64
2023-02-12T05:34:11.087Z,97.54
2023-02-12T05:35:11.072Z,97.54
2023-02-12T05:36:11.073Z,97.54
2023-02-12T05:37:11.054Z,97.44
2023-02-12T05:38:11.033Z,97.44
2023-02-12T05:39:11.009Z,97.33
2023-02-12T05:40:10.997Z,97.33
2023-02-12T05:41:10.986Z,97.23
2023-02-12T05:42:10.989Z,97.23
2023-02-12T05:43:10.959Z,97.23
2023-02-12T05:44:10.948Z,97.23
2023-02-12T05:45:10.930Z,97.23
2023-02-12T05:46:11.028Z,97.23
2023-02-12T05:47:10.925Z,97.13
2023-02-12T05:48:10.898Z,97.23
2023-02-12T05:49:10.914Z,97.13
2023-02-12T05:50:10.867Z,97.13
2023-02-12T05:51:10.855Z,97.13
2023-02-12T05:52:10.880Z,97.13
2023-02-12T05:53:10.838Z,97.13
2023-02-12T05:54:10.815Z,97.02
2023-02-12T05:55:10.817Z,97.59
2023-02-12T05:56:10.797Z,98.00
2023-02-12T05:57:10.793Z,98.21
2023-02-12T05:58:10.773Z,98.31
2023-02-12T05:59:10.745Z,98.41
2023-02-12T06:00:10.735Z,98.66
2023-02-12T06:01:10.722Z,98.66
2023-02-12T06:02:10.736Z,98.66
2023-02-12T06:03:10.700Z,98.62
2023-02-12T06:04:10.794Z,98.41
2023-02-12T06:05:10.698Z,98.31
2023-02-12T06:06:10.670Z,98.41
2023-02-12T06:07:10.674Z,98.52
2023-02-12T06:08:10.632Z,98.41
2023-02-12T06:09:10.619Z,98.31
2023-02-12T06:10:10.606Z,98.10
2023-02-12T06:11:10.594Z,97.89
2023-02-12T06:12:10.602Z,97.75
2023-02-12T06:13:10.566Z,97.59
2023-02-12T06:14:10.561Z,97.38
2023-02-12T06:15:10.542Z,97.59
2023-02-12T06:16:10.606Z,97.79
2023-02-12T06:17:10.529Z,98.15
2023-02-12T06:18:10.504Z,98.31
2023-02-12T06:19:10.486Z,98.46
2023-02-12T06:20:10.479Z,98.56
2023-02-12T06:21:10.492Z,98.56
2023-02-12T06:22:10.466Z,98.66
2023-02-12T06:23:10.435Z,98.87
2023-02-12T06:24:10.422Z,98.77
2023-02-12T06:25:10.415Z,98.77
2023-02-12T06:26:10.395Z,98.77
2023-02-12T06:27:11.223Z,98.77
2023-02-12T06:28:10.420Z,98.66
2023-02-12T06:29:10.366Z,98.56
2023-02-12T06:30:10.356Z,98.52
2023-02-12T06:31:10.462Z,98.31
2023-02-12T06:32:10.444Z,98.10
2023-02-12T06:33:10.311Z,97.79
2023-02-12T06:34:10.306Z,97.54
2023-02-12T06:35:10.282Z,97.44
2023-02-12T06:36:10.268Z,97.17
2023-02-12T06:37:10.309Z,97.49
2023-02-12T06:38:10.246Z,97.69
2023-02-12T06:39:10.225Z,98.00
2023-02-12T06:40:10.218Z,98.10
2023-02-12T06:41:10.205Z,98.10
2023-02-12T06:42:10.229Z,98.00
2023-02-12T06:43:10.190Z,97.79
2023-02-12T06:44:10.169Z,97.79
2023-02-12T06:45:10.149Z,97.89
2023-02-12T06:46:10.168Z,98.10
2023-02-12T06:47:10.131Z,98.00
2023-02-12T06:48:10.135Z,98.10
2023-02-12T06:49:10.100Z,98.00
2023-02-12T06:50:10.099Z,97.89
2023-02-12T06:51:10.096Z,97.79
2023-02-12T06:52:10.063Z,98.00
2023-02-12T06:53:10.091Z,98.21
2023-02-12T06:54:10.042Z,98.00
2023-02-12T06:55:10.024Z,98.00
2023-02-12T06:56:10.010Z,98.00
2023-02-12T06:57:10.006Z,98.31
2023-02-12T06:58:10.003Z,98.62
2023-02-12T06:59:09.977Z,98.87
2023-02-12T07:00:09.967Z,99.08
2023-02-12T07:01:10.074Z,99.18
2023-02-12T07:02:09.935Z,99.24
2023-02-12T07:03:09.967Z,99.14
2023-02-12T07:04:09.972Z,98.93
2023-02-12T07:05:09.891Z,98.83
2023-02-12T07:06:09.888Z,98.72
2023-02-12T07:07:09.867Z,98.52
2023-02-12T07:08:09.887Z,98.41
2023-02-12T07:09:09.863Z,98.27
2023-02-12T07:10:09.833Z,98.27
2023-02-12T07:11:09.819Z,98.16
2023-02-12T07:12:09.803Z,97.85
2023-02-12T07:13:09.806Z,97.64
2023-02-12T07:14:09.774Z,97.54
2023-02-12T07:15:09.761Z,97.39
2023-02-12T07:16:09.848Z,97.08
2023-02-12T07:17:09.753Z,97.08
2023-02-12T07:18:09.734Z,96.98
2023-02-12T07:19:09.708Z,96.98
2023-02-12T07:20:09.707Z,96.77
2023-02-12T07:21:09.690Z,96.47
2023-02-12T07:22:09.680Z,96.56
2023-02-12T07:23:09.704Z,96.36
2023-02-12T07:24:09.710Z,96.36
2023-02-12T07:25:09.656Z,96.31
2023-02-12T07:26:09.623Z,96.11
2023-02-12T07:27:09.609Z,96.11
2023-02-12T07:28:09.641Z,95.90
2023-02-12T07:29:09.583Z,95.90
2023-02-12T07:30:09.574Z,95.70
2023-02-12T07:31:09.764Z,95.59
2023-02-12T07:32:10.303Z,95.84
2023-02-12T07:33:09.546Z,96.36
2023-02-12T07:34:09.556Z,96.67
2023-02-12T07:35:09.517Z,96.77
2023-02-12T07:36:09.501Z,96.47
2023-02-12T07:37:09.477Z,96.26
2023-02-12T07:38:09.477Z,96.56
2023-02-12T07:39:09.451Z,96.67
2023-02-12T07:40:09.440Z,96.67
2023-02-12T07:41:10.754Z,96.21
2023-02-12T07:42:09.416Z,96.05
2023-02-12T07:43:09.415Z,96.26
2023-02-12T07:44:09.391Z,96.47
2023-02-12T07:45:09.376Z,96.56
2023-02-12T07:46:09.460Z,96.92
2023-02-12T07:47:09.347Z,97.02
2023-02-12T07:48:09.357Z,97.13
2023-02-12T07:49:09.328Z,97.23
2023-02-12T07:50:09.314Z,97.13
2023-02-12T07:51:09.305Z,96.98
2023-02-12T07:52:10.996Z,96.77
2023-02-12T07:53:09.303Z,96.47
2023-02-12T07:54:09.274Z,96.31
2023-02-12T07:55:09.247Z,96.01
2023-02-12T07:56:09.234Z,95.80
2023-02-12T07:57:09.245Z,95.80
2023-02-12T07:58:09.208Z,95.70
2023-02-12T07:59:09.207Z,95.59
2023-02-12T08:00:09.189Z,95.55
2023-02-12T08:01:09.164Z,95.34
2023-02-12T08:02:09.200Z,95.28
2023-02-12T08:03:09.141Z,95.59
2023-02-12T08:04:09.210Z,95.65
2023-02-12T08:05:09.128Z,95.45
2023-02-12T08:06:09.106Z,95.24
2023-02-12T08:07:09.088Z,95.03
2023-02-12T08:08:09.081Z,94.68
2023-02-12T08:09:09.077Z,94.27
2023-02-12T08:10:09.051Z,94.06
2023-02-12T08:11:09.039Z,93.90
2023-02-12T08:12:09.020Z,94.62
2023-02-12T08:13:09.031Z,94.68
2023-02-12T08:14:09.022Z,94.57
2023-02-12T08:15:08.980Z,94.17
2023-02-12T08:16:08.995Z,94.21
2023-02-12T08:17:08.955Z,94.42
2023-02-12T08:18:08.941Z,94.31
2023-02-12T08:19:18.749Z,94.42
2023-02-12T08:20:08.922Z,94.82
2023-02-12T08:21:08.902Z,95.03
2023-02-12T08:22:08.888Z,94.99
2023-02-12T08:23:08.876Z,94.68
2023-02-12T08:24:08.878Z,94.57
2023-02-12T08:25:08.856Z,94.27
2023-02-12T08:26:08.847Z,94.02
2023-02-12T08:27:08.826Z,93.91
2023-02-12T08:28:08.840Z,93.60
2023-02-12T08:29:08.831Z,93.35
2023-02-12T08:30:08.795Z,93.05
2023-02-12T08:31:08.808Z,92.84
2023-02-12T08:32:08.821Z,92.53
2023-02-12T08:33:08.754Z,92.38
2023-02-12T08:34:08.747Z,92.33
2023-02-12T08:35:08.724Z,92.08
2023-02-12T08:36:08.705Z,91.97
2023-02-12T08:37:08.697Z,91.97
2023-02-12T08:38:08.683Z,91.87
2023-02-12T08:39:08.683Z,91.77
2023-02-12T08:40:08.663Z,91.52
2023-02-12T08:41:08.692Z,91.42
2023-02-12T08:42:08.630Z,91.36
2023-02-12T08:43:08.616Z,91.36
2023-02-12T08:44:08.697Z,91.36
2023-02-12T08:45:08.613Z,91.56
2023-02-12T08:46:08.694Z,91.52
2023-02-12T08:47:08.562Z,91.42
2023-02-12T08:48:08.548Z,91.21
2023-02-12T08:49:08.545Z,90.96
2023-02-12T08:50:08.518Z,90.86
2023-02-12T08:51:08.507Z,90.55
2023-02-12T08:52:08.495Z,90.75
2023-02-12T08:53:08.477Z,90.45
2023-02-12T08:54:08.476Z,90.03
2023-02-12T08:55:08.454Z,90.49
2023-02-12T08:56:08.437Z,91.21
2023-02-12T08:57:08.432Z,91.31
2023-02-12T08:58:08.406Z,91.11
2023-02-12T08:59:08.415Z,90.96
2023-02-12T09:00:08.382Z,90.34
2023-02-12T09:01:08.427Z,90.69
2023-02-12T09:02:08.401Z,91.50
2023-02-12T09:03:08.347Z,92.74
2023-02-12T09:04:08.341Z,93.50
2023-02-12T09:05:08.315Z,94.06
2023-02-12T09:06:08.306Z,94.47
2023-02-12T09:07:10.775Z,94.89
2023-02-12T09:08:08.327Z,94.89
2023-02-12T09:09:08.294Z,94.99
2023-02-12T09:10:08.259Z,95.09
2023-02-12T09:11:08.286Z,94.89
2023-02-12T09:12:08.223Z,94.57
2023-02-12T09:13:08.215Z,94.37
2023-02-12T09:14:08.200Z,94.27
2023-02-12T09:15:08.200Z,94.47
2023-02-12T09:16:08.171Z,94.53
2023-02-12T09:17:08.253Z,94.74
2023-02-12T09:18:08.143Z,94.59
2023-02-12T09:19:08.143Z,93.93
2023-02-12T09:20:08.140Z,93.27
2023-02-12T09:21:08.112Z,92.86
2023-02-12T09:22:08.095Z,92.50
2023-02-12T09:23:08.081Z,91.95
2023-02-12T09:24:08.070Z,91.53
2023-02-12T09:25:08.072Z,91.02
2023-02-12T09:26:08.060Z,90.57
2023-02-12T09:27:08.029Z,90.16
2023-02-12T09:28:08.043Z,90.06
2023-02-12T09:29:08.005Z,89.85
2023-02-12T09:30:08.009Z,89.70
2023-02-12T09:31:08.068Z,89.60
2023-02-12T09:32:08.047Z,89.29
2023-02-12T09:33:08.005Z,89.25
2023-02-12T09:34:07.944Z,89.04
2023-02-12T09:35:07.942Z,89.04
2023-02-12T09:36:07.918Z,88.95
2023-02-12T09:37:07.904Z,88.74
2023-02-12T09:38:07.894Z,88.64
2023-02-12T09:39:07.878Z,88.89
2023-02-12T09:40:07.873Z,89.81
2023-02-12T09:41:07.846Z,90.08
2023-02-12T09:42:07.832Z,89.87
2023-02-12T09:43:07.825Z,89.46
2023-02-12T09:44:07.806Z,89.04
2023-02-12T09:45:07.808Z,88.95
2023-02-12T09:46:07.821Z,90.41
2023-02-12T09:47:07.769Z,92.30
2023-02-12T09:48:07.840Z,93.33
2023-02-12T09:49:07.766Z,93.43
2023-02-12T09:50:07.751Z,92.97
2023-02-12T09:51:07.718Z,92.63
2023-02-12T09:52:07.706Z,92.01
2023-02-12T09:53:07.700Z,91.45
2023-02-12T09:54:07.680Z,91.10
2023-02-12T09:55:07.677Z,90.38
2023-02-12T09:56:07.650Z,90.44
2023-02-12T09:57:07.657Z,90.24
2023-02-12T09:58:08.177Z,89.52
2023-02-12T09:59:07.617Z,89.17
2023-02-12T10:00:07.637Z,89.03
2023-02-12T10:01:07.621Z,88.27
2023-02-12T10:02:07.592Z,87.76
2023-02-12T10:03:07.574Z,87.10
2023-02-12T10:04:07.622Z,86.65
2023-02-12T10:05:07.784Z,86.24
2023-02-12T10:06:07.530Z,84.97
2023-02-12T10:07:07.511Z,85.11
2023-02-12T10:08:07.501Z,86.11
2023-02-12T10:09:07.506Z,87.24
2023-02-12T10:10:08.112Z,86.99
2023-02-12T10:11:07.461Z,86.79
2023-02-12T10:12:07.441Z,86.55
2023-02-12T10:13:07.450Z,85.83
2023-02-12T10:14:07.419Z,85.79
2023-02-12T10:15:07.421Z,85.69
2023-02-12T10:16:07.435Z,85.34
2023-02-12T10:17:07.388Z,84.83
2023-02-12T10:18:07.381Z,84.72
2023-02-12T10:19:07.368Z,84.99
2023-02-12T10:20:07.359Z,84.89
2023-02-12T10:21:07.371Z,84.17
2023-02-12T10:22:07.319Z,83.87
2023-02-12T10:23:07.299Z,83.66
2023-02-12T10:24:07.286Z,83.62
2023-02-12T10:25:07.320Z,83.73
2023-02-12T10:26:07.261Z,83.32
2023-02-12T10:27:07.252Z,83.48
2023-02-12T10:28:07.264Z,82.97
2023-02-12T10:29:07.222Z,82.56
2023-02-12T10:30:07.202Z,82.12
2023-02-12T10:31:07.344Z,82.12
2023-02-12T10:32:07.185Z,81.20
2023-02-12T10:33:07.166Z,80.83
2023-02-12T10:34:07.151Z,83.91
2023-02-12T10:35:07.146Z,84.79
2023-02-12T10:36:07.144Z,84.00
2023-02-12T10:37:07.142Z,82.70
2023-02-12T10:38:07.099Z,84.03
2023-02-12T10:39:07.099Z,83.73
2023-02-12T10:40:07.081Z,83.11
2023-02-12T10:41:07.075Z,84.77
2023-02-12T10:42:07.046Z,84.83
2023-02-12T10:43:09.062Z,85.22
2023-02-12T10:44:07.029Z,87.61
2023-02-12T10:45:07.005Z,87.55
2023-02-12T10:46:07.060Z,88.88
2023-02-12T10:47:07.085Z,88.64
2023-02-12T10:48:06.968Z,88.49
2023-02-12T10:49:06.951Z,86.63
2023-02-12T10:50:06.939Z,84.06
2023-02-12T10:51:06.944Z,81.90
2023-02-12T10:52:06.910Z,80.29
2023-02-12T10:53:06.921Z,78.50
2023-02-12T10:54:06.885Z,80.61
2023-02-12T10:55:06.868Z,80.02
2023-02-12T10:56:06.875Z,79.25
2023-02-12T10:57:06.929Z,80.91
2023-02-12T10:58:06.829Z,80.43
2023-02-12T10:59:06.818Z,78.73
2023-02-12T11:00:06.805Z,77.53
2023-02-12T11:01:06.803Z,74.95
2023-02-12T11:02:06.780Z,72.17
2023-02-12T11:03:06.778Z,73.73
2023-02-12T11:04:06.749Z,71.30
2023-02-12T11:05:06.805Z,68.87
2023-02-12T11:06:06.742Z,65.98
2023-02-12T11:07:06.732Z,66.08
2023-02-12T11:08:06.699Z,64.37
2023-02-12T11:09:06.714Z,64.47
2023-02-12T11:10:06.671Z,64.40
2023-02-12T11:11:06.672Z,65.14
2023-02-12T11:12:06.640Z,64.43
2023-02-12T11:13:06.635Z,65.83
2023-02-12T11:14:06.611Z,70.45
2023-02-12T11:15:06.604Z,69.98
2023-02-12T11:16:06.684Z,71.09
2023-02-12T11:17:06.700Z,74.85
2023-02-12T11:18:06.561Z,74.04
2023-02-12T11:19:06.554Z,72.92
2023-02-12T11:20:06.538Z,70.45
2023-02-12T11:21:06.555Z,68.43
2023-02-12T11:22:06.508Z,65.41
2023-02-12T11:23:06.497Z,65.08
2023-02-12T11:24:06.486Z,63.70
2023-02-12T11:25:06.496Z,62.46
2023-02-12T11:26:06.505Z,62.10
2023-02-12T11:27:06.445Z,59.60
2023-02-12T11:28:06.531Z,57.84
2023-02-12T11:29:07.282Z,57.81
2023-02-12T11:30:06.404Z,56.38
2023-02-12T11:31:06.465Z,56.88
2023-02-12T11:32:06.440Z,54.52
2023-02-12T11:33:06.377Z,60.19
2023-02-12T11:34:06.355Z,67.85
2023-02-12T11:35:06.361Z,69.10
2023-02-12T11:36:07.453Z,65.25
2023-02-12T11:37:06.330Z,62.66
2023-02-12T11:38:06.299Z,61.56
2023-02-12T11:39:06.286Z,60.60
2023-02-12T11:40:06.290Z,59.76
2023-02-12T11:41:06.290Z,58.90
2023-02-12T11:42:06.266Z,57.90
2023-02-12T11:43:06.245Z,57.79
2023-02-12T11:44:06.222Z,61.69
2023-02-12T11:45:06.217Z,62.16
2023-02-12T11:46:06.522Z,61.49
2023-02-12T11:47:06.209Z,60.83
2023-02-12T11:48:06.175Z,60.83
2023-02-12T11:49:06.160Z,60.45
2023-02-12T11:50:06.195Z,61.72
2023-02-12T11:51:06.170Z,62.79
2023-02-12T11:52:06.135Z,63.49
2023-02-12T11:53:06.110Z,63.25
2023-02-12T11:54:06.098Z,65.80
2023-02-12T11:55:06.081Z,68.23
2023-02-12T11:56:06.065Z,68.63
2023-02-12T11:57:06.101Z,71.50
2023-02-12T11:58:06.048Z,72.34
2023-02-12T11:59:06.028Z,72.85
2023-02-12T12:00:06.015Z,72.92
2023-02-12T12:01:05.999Z,72.28
2023-02-12T12:02:06.173Z,71.37
2023-02-12T12:03:06.058Z,69.37
2023-02-12T12:04:05.990Z,69.03
2023-02-12T12:05:05.953Z,73.94
2023-02-12T12:06:05.938Z,74.07
2023-02-12T12:07:05.938Z,72.25
2023-02-12T12:08:05.903Z,74.18
2023-02-12T12:09:05.893Z,76.39
2023-02-12T12:10:05.887Z,75.64
2023-02-12T12:11:05.868Z,75.57
2023-02-12T12:12:05.866Z,74.07
2023-02-12T12:13:05.871Z,75.37
2023-02-12T12:14:05.830Z,77.78
2023-02-12T12:15:05.813Z,78.36
2023-02-12T12:16:05.831Z,77.57
2023-02-12T12:17:05.810Z,76.62
2023-02-12T12:18:06.022Z,74.65
2023-02-12T12:19:05.781Z,74.01
2023-02-12T12:20:05.749Z,74.01
2023-02-12T12:21:05.732Z,73.80
2023-02-12T12:22:05.733Z,73.97
2023-02-12T12:23:05.710Z,73.57
2023-02-12T12:24:05.707Z,73.22
2023-02-12T12:25:06.479Z,73.29
2023-02-12T12:26:05.684Z,69.37
2023-02-12T12:27:05.672Z,66.31
2023-02-12T12:28:05.843Z,63.73
2023-02-12T12:29:08.194Z,62.13
2023-02-12T12:30:05.618Z,59.83
2023-02-12T12:31:05.666Z,58.42
2023-02-12T12:32:05.629Z,56.05
2023-02-12T12:33:05.578Z,55.00
2023-02-12T12:34:05.565Z,55.20
2023-02-12T12:35:05.558Z,54.50
2023-02-12T12:36:05.539Z,54.67
2023-02-12T12:37:05.547Z,53.17
2023-02-12T12:38:05.513Z,52.49
2023-02-12T12:39:05.507Z,52.67
2023-02-12T12:40:05.489Z,53.89
2023-02-12T12:41:05.472Z,54.43
2023-02-12T12:42:05.478Z,54.12
2023-02-12T12:43:05.459Z,53.89
2023-02-12T12:44:05.438Z,54.00
2023-02-12T12:45:05.450Z,54.35
2023-02-12T12:46:06.073Z,55.20
2023-02-12T12:47:05.426Z,55.43
2023-02-12T12:48:05.385Z,57.59
2023-02-12T12:49:05.366Z,58.15
2023-02-12T12:50:05.357Z,57.72
2023-02-12T12:51:05.365Z,58.31
2023-02-12T12:52:05.329Z,59.64